LSGGLIRP

Guest
Details From LSGG - Geneva
To LIRP - Pisa
Flight Number -
Tags Generated
Created
Modified
Stats Distance 238 nm / 441 km
Max Altitude 0 ft / 0 m
Waypoints 3
Social Downloads 1
Likes 0
Share VATSIM

Download

Looking for another format? Having issues loading an existing format? Contact us
Advertisement - Login to hide

Notes

Generated

Route

LSGG PIN93 LIRP

ID Type Via Altitude Latitude Longitude Leg Dist Tot Dist Heading (true) Name
O LSGG APT - 0 ft / 0 m 46.23482˚ 6.09953˚ - 0 nm - -
PIN93 FIX - 0 ft / 0 m 43.80259˚ 10.18060˚ 226 nm 226 nm 129° / 132° -
O LIRP APT - 0 ft / 0 m 43.67384˚ 10.38072˚ 11 nm 238 nm 132° / 132° -

Altitude Profile

Advertisement - Login to hide

Weather


0- 5 10 15 20 25 30 35+ Temperature / ° C

Clouds and Precipitation
Forecast for 2018-05-21 18:00 UTC. Updated 5 minutes ago

Ground ~20,000 ft ~40,000 ft Winds

LSGG

Details ICAO LSGG (GVA)
Name Geneva
Region Switzerland
Timezone Europe/Zurich (UTC+2.0)
Stats Elevation 1,410 ft / 430 m (AMSL)
Location 46.237755° 6.106173°
Runways 2
Magnetic Variation 1.790° E

METAR

LSGG 211520Z 06006KT 9999 FEW045 BKN300 23/09 Q1011 NOSIG

Decode

TAF

TAF LSGG 211425Z 2115/2221 05007KT 9999 FEW045TCU SCT250 TX22/2115Z TN12/2205Z TX21/2215Z BECMG 2117/2119 VRB03KT PROB40 TEMPO 2210/2216 TSRA SCT030CB

Decode

Departure Runways

ID Width Length Bearing (true) Bearing (mag) Surface Threshold Offset Overrun Length
05 180 ft / 55 m 12,796 ft / 3,900 m 45.43° 43.64° Concrete 1,079 ft / 329 m 66 ft / 20 m
05L 98 ft / 30 m 2,701 ft / 823 m 45.44° 43.65° Grass 610 ft / 186 m 0 ft / 0 m
23 180 ft / 55 m 12,796 ft / 3,900 m 225.45° 223.66° Concrete 0 ft / 0 m 66 ft / 20 m
23R 98 ft / 30 m 2,701 ft / 823 m 225.45° 223.66° Grass 997 ft / 304 m 0 ft / 0 m

LIRP

Details ICAO LIRP (PSA)
Name PISA
Region Italy
Timezone Europe/Rome (UTC+2.0)
Stats Elevation 6 ft / 2 m (AMSL)
Location 43.683883° 10.392724°
Runways 2
Magnetic Variation 2.751° E

METAR

LIRP 211445Z 36006KT 9999 FEW020CB BKN050 18/16 Q1012 NOSIG

Decode

TAF

TAF LIRP 211100Z 2112/2212 10010KT 9999 FEW040 TEMPO 2112/2210 5000 TSRA FEW020CB BKN040

Decode

Destination Runways

ID Width Length Bearing (true) Bearing (mag) Surface Threshold Offset Overrun Length
04L 141 ft / 43 m 9,158 ft / 2,791 m 36.70° 33.95° Asphalt 979 ft / 298 m 0 ft / 0 m
04R 148 ft / 45 m 9,819 ft / 2,993 m 36.72° 33.97° Asphalt 490 ft / 149 m 0 ft / 0 m
22L 148 ft / 45 m 9,819 ft / 2,993 m 216.73° 213.98° Asphalt 843 ft / 257 m 0 ft / 0 m
22R 141 ft / 43 m 9,158 ft / 2,791 m 216.72° 213.97° Asphalt 0 ft / 0 m 0 ft / 0 m

Approach Navaids

Runway Type Ident Frequency Range Bearing (true) Bearing (mag) Slope Elevation
04R Localiser IPI 109.70 MHz 18 nm / 33 km 36.76° 34.01° - 7 ft / 2 m (AMSL)
04R Glidescope IPI 109.70 MHz 10 nm / 19 km 36.72° 33.97° 3.00° 3 ft / 1 m (AMSL)

Popular Alternatives